Time;durP1;ratioP1;P1;durP2;ratioP2;P2;SDS_P1;SDS_P2;PMS_P1;PMS_P2;Temp;Humidity;BMP_temperature;BMP_pressure;BME280_temperature;BME280_humidity;BME280_pressure;Samples;Min_cycle;Max_cycle;Signal;HPM_P1;HPM_P2
2021/03/19 00:00:16;;;;;;;38.78;25.52;;;;;;;1.57;69.85;94034.63;1721403;83;21072;-55
2021/03/19 00:02:44;;;;;;;50.10;29.70;;;;;;;1.50;69.96;94036.84;1721495;83;21484;-56
2021/03/19 00:05:15;;;;;;;43.83;27.90;;;;;;;1.40;70.12;94018.80;1721503;83;21159;-56
2021/03/19 00:07:46;;;;;;;48.23;29.70;;;;;;;1.38;70.41;94031.20;1721432;83;21353;-56
2021/03/19 00:10:18;;;;;;;41.20;27.40;;;;;;;1.42;70.72;94029.98;1721340;82;21112;-56
2021/03/19 00:12:46;;;;;;;41.23;25.52;;;;;;;1.47;70.38;94032.23;1721460;83;21068;-56
2021/03/19 00:15:17;;;;;;;41.98;25.65;;;;;;;1.47;70.34;94025.47;1721465;83;21508;-56
2021/03/19 00:17:44;;;;;;;50.80;30.60;;;;;;;1.45;70.32;94021.05;1721473;83;21072;-56
2021/03/19 00:20:14;;;;;;;44.83;27.67;;;;;;;1.44;70.47;94023.58;1718450;83;21215;-56
2021/03/19 00:22:43;;;;;;;43.60;29.00;;;;;;;1.49;70.54;94020.41;1721440;83;21571;-56
2021/03/19 00:25:13;;;;;;;36.33;24.45;;;;;;;1.49;70.43;94016.94;1721306;83;21151;-56
2021/03/19 00:27:47;;;;;;;35.20;23.80;;;;;;;1.46;70.35;94022.58;1721481;83;21151;-57
2021/03/19 00:30:16;;;;;;;39.18;26.62;;;;;;;1.39;70.54;94015.91;1721426;83;21076;-57
2021/03/19 00:32:46;;;;;;;45.33;27.17;;;;;;;1.34;70.54;94012.27;1721414;83;21091;-56
2021/03/19 00:35:14;;;;;;;46.20;29.52;;;;;;;1.30;70.61;94012.16;1721425;83;21155;-56
2021/03/19 00:37:42;;;;;;;42.48;26.73;;;;;;;1.25;70.71;94013.94;1721459;83;21564;-57
2021/03/19 00:40:12;;;;;;;45.15;27.98;;;;;;;1.22;70.90;94006.62;1721347;83;21174;-56
2021/03/19 00:42:40;;;;;;;46.53;29.05;;;;;;;1.22;71.03;94006.62;1721584;83;21215;-62
2021/03/19 00:45:12;;;;;;;69.85;41.92;;;;;;;1.30;71.07;94000.72;1721360;83;22114;-57
2021/03/19 00:47:40;;;;;;;43.48;28.83;;;;;;;1.39;71.04;94005.06;1721377;83;21670;-57
2021/03/19 00:50:11;;;;;;;43.08;28.23;;;;;;;1.47;70.69;93999.72;1721434;83;21493;-56
2021/03/19 00:52:40;;;;;;;43.20;29.50;;;;;;;1.52;70.54;94002.58;1721546;83;21738;-56
2021/03/19 00:55:11;;;;;;;55.85;36.33;;;;;;;1.58;70.41;94005.00;1721460;83;21072;-56
2021/03/19 00:57:39;;;;;;;50.48;29.67;;;;;;;1.60;70.19;94000.72;1721456;83;21372;-57
2021/03/19 01:00:10;;;;;;;44.88;28.25;;;;;;;1.58;69.96;94003.07;1694939;83;21103;-57
2021/03/19 01:02:38;;;;;;;46.37;30.40;;;;;;;1.49;69.90;93996.02;1694753;83;21091;-57
2021/03/19 01:05:15;;;;;;;46.55;30.82;;;;;;;1.43;70.10;93996.88;1721426;83;21092;-56
2021/03/19 01:07:44;;;;;;;48.70;32.35;;;;;;;1.40;70.54;93990.34;1721370;83;21163;-57
2021/03/19 01:10:19;;;;;;;51.98;32.65;;;;;;;1.52;70.29;93995.20;1721357;82;21212;-55
2021/03/19 01:12:48;;;;;;;46.90;31.73;;;;;;;1.56;70.12;93991.09;1721152;83;21096;-56
2021/03/19 01:15:16;;;;;;;48.50;32.73;;;;;;;1.64;70.08;93982.45;1721327;83;21095;-57
2021/03/19 01:17:46;;;;;;;50.70;33.65;;;;;;;1.71;69.76;93983.70;1721390;83;21068;-56
2021/03/19 01:20:16;;;;;;;56.80;36.70;;;;;;;1.77;69.52;93980.73;1721513;83;21464;-57
2021/03/19 01:22:44;;;;;;;61.90;37.55;;;;;;;1.83;69.14;93983.92;1721411;83;21551;-57
2021/03/19 01:25:18;;;;;;;56.35;35.83;;;;;;;1.89;68.88;93984.20;1721345;83;21563;-56
2021/03/19 01:27:46;;;;;;;58.83;37.53;;;;;;;1.90;68.47;93985.73;1721462;83;21099;-56
2021/03/19 01:30:18;;;;;;;61.85;36.68;;;;;;;1.89;68.24;93978.20;1721442;83;21128;-57
2021/03/19 01:32:46;;;;;;;61.60;35.75;;;;;;;1.90;68.15;93985.73;1721443;83;21088;-56
2021/03/19 01:35:16;;;;;;;59.48;37.95;;;;;;;1.92;67.93;93984.77;1721463;83;22136;-56
2021/03/19 01:37:45;;;;;;;66.33;38.20;;;;;;;1.93;67.87;93977.56;1721338;83;21112;-56
2021/03/19 01:40:14;;;;;;;52.45;34.15;;;;;;;1.92;67.73;93982.81;1721301;83;21558;-56
2021/03/19 01:42:49;;;;;;;53.60;31.10;;;;;;;1.95;67.74;93973.09;1721373;83;21163;-56
2021/03/19 01:45:59;;;;;;;48.78;34.03;;;;;;;1.95;67.66;93971.73;1699209;83;21503;-56
2021/03/19 01:49:25;;;;;;;68.85;42.20;;;;;;;1.85;67.78;93974.79;1705536;83;21390;-57
2021/03/19 01:52:51;;;;;;;66.72;37.50;;;;;;;1.70;68.03;93978.70;1726528;83;21128;-57
2021/03/19 01:56:16;;;;;;;51.92;32.25;;;;;;;1.64;68.10;93974.33;1726524;83;21630;-56
2021/03/19 01:59:40;;;;;;;41.88;26.87;;;;;;;1.49;67.96;93977.66;1726606;81;21579;-57
2021/03/19 02:03:04;;;;;;;45.33;30.02;;;;;;;1.18;68.38;93974.16;1726686;83;21504;-56
2021/03/19 02:06:30;;;;;;;48.13;30.40;;;;;;;0.97;68.95;93975.03;1726509;83;21126;-56
2021/03/19 02:09:55;;;;;;;58.38;31.48;;;;;;;0.82;69.53;93973.65;1726489;83;21100;-56
2021/03/19 02:13:19;;;;;;;42.05;27.02;;;;;;;0.81;70.06;93973.47;1726576;83;21115;-56
2021/03/19 02:16:45;;;;;;;45.90;27.87;;;;;;;0.89;70.12;93968.14;1726695;83;21123;-56
2021/03/19 02:20:09;;;;;;;63.73;38.40;;;;;;;1.03;70.03;93976.10;1726792;83;21115;-57
2021/03/19 02:23:34;;;;;;;74.12;43.00;;;;;;;1.22;70.34;93974.13;1726683;83;21364;-58
2021/03/19 02:26:59;;;;;;;74.85;47.38;;;;;;;1.41;69.75;93969.42;1726587;83;21111;-56
2021/03/19 02:30:23;;;;;;;72.95;45.63;;;;;;;1.50;69.22;93966.39;1726662;83;21092;-57
2021/03/19 02:32:52;;;;;;;76.05;47.00;;;;;;;1.54;69.16;93961.67;1726647;83;21171;-57
2021/03/19 02:35:22;;;;;;;63.92;40.95;;;;;;;1.61;69.04;93971.66;1726710;81;21140;-56
2021/03/19 02:37:50;;;;;;;65.37;39.50;;;;;;;1.73;68.84;93971.85;1726785;83;22138;-56
2021/03/19 02:40:22;;;;;;;62.33;41.33;;;;;;;1.89;68.42;93970.08;1726617;82;21079;-57
2021/03/19 02:42:50;;;;;;;75.55;44.60;;;;;;;2.00;67.85;93965.23;1726693;83;21167;-57
2021/03/19 02:45:21;;;;;;;76.00;46.95;;;;;;;1.95;67.50;93971.73;1722840;82;21488;-57
2021/03/19 02:47:50;;;;;;;60.20;37.05;;;;;;;1.91;67.54;93965.58;1695178;83;21096;-57
2021/03/19 02:50:19;;;;;;;48.35;32.40;;;;;;;1.83;67.38;93968.23;1721635;83;22246;-56
2021/03/19 02:52:47;;;;;;;44.50;28.47;;;;;;;1.84;67.77;93967.05;1721538;83;21899;-56
2021/03/19 02:55:16;;;;;;;34.98;23.25;;;;;;;1.88;67.42;93958.27;1721481;83;21093;-56
2021/03/19 02:57:44;;;;;;;22.50;16.97;;;;;;;1.89;67.21;93965.23;1721485;83;21092;-56
2021/03/19 03:00:18;;;;;;;24.77;17.55;;;;;;;1.89;67.12;93962.52;1721471;83;21580;-57
2021/03/19 03:02:46;;;;;;;21.73;16.35;;;;;;;1.91;66.95;93965.00;1721605;83;22149;-57
2021/03/19 03:05:16;;;;;;;20.25;14.53;;;;;;;1.87;66.66;93963.52;1721452;83;21084;-58
2021/03/19 03:07:44;;;;;;;20.43;14.53;;;;;;;1.87;66.81;93970.30;1721523;83;21615;-56
2021/03/19 03:10:16;;;;;;;18.12;13.75;;;;;;;1.93;66.53;93967.31;1721512;82;21615;-57
2021/03/19 03:12:44;;;;;;;19.98;14.70;;;;;;;1.90;66.35;93969.47;1721528;83;21130;-56
2021/03/19 03:15:15;;;;;;;24.87;18.60;;;;;;;1.83;66.45;93970.94;1721515;83;21261;-56
2021/03/19 03:17:44;;;;;;;29.30;19.48;;;;;;;1.74;66.45;93966.03;1721470;83;21132;-56
2021/03/19 03:20:32;;;;;;;29.30;20.30;;;;;;;1.75;66.89;93969.53;1721401;83;21164;-56
2021/03/19 03:23:01;;;;;;;31.80;22.05;;;;;;;1.78;66.74;93964.64;1721476;83;21192;-57
2021/03/19 03:25:29;;;;;;;36.60;24.50;;;;;;;1.77;66.97;93965.81;1721502;83;21096;-56
2021/03/19 03:27:57;;;;;;;55.98;32.93;;;;;;;1.86;67.01;93971.47;1721650;83;22255;-60
2021/03/19 03:30:32;;;;;;;72.50;42.03;;;;;;;1.90;66.70;93969.47;1721513;83;21508;-57
2021/03/19 03:33:01;;;;;;;66.67;37.75;;;;;;;1.88;66.70;93977.25;1721197;83;21143;-56
2021/03/19 03:35:29;;;;;;;47.78;30.15;;;;;;;1.79;66.83;93970.98;1721474;83;21104;-57
2021/03/19 03:38:00;;;;;;;28.70;20.23;;;;;;;1.77;67.08;93969.88;1721574;83;21076;-55
2021/03/19 03:40:33;;;;;;;28.70;20.25;;;;;;;1.79;67.03;93971.59;1721561;83;22297;-57
2021/03/19 03:43:01;;;;;;;30.77;21.85;;;;;;;1.74;66.97;93980.20;1720833;83;21159;-55
2021/03/19 03:45:31;;;;;;;29.67;19.92;;;;;;;1.69;67.01;93972.50;1721281;82;21127;-56
2021/03/19 03:48:00;;;;;;;35.15;24.27;;;;;;;1.61;67.31;93976.50;1721477;83;21627;-56
2021/03/19 03:50:29;;;;;;;35.83;25.40;;;;;;;1.67;67.54;93972.75;1721554;83;21508;-56
2021/03/19 03:52:59;;;;;;;49.73;30.50;;;;;;;1.73;67.29;93976.53;1720363;83;21225;-55
2021/03/19 03:55:27;;;;;;;53.23;34.55;;;;;;;1.76;67.43;93969.70;1721396;83;21083;-56
2021/03/19 03:57:55;;;;;;;40.28;27.48;;;;;;;1.81;67.35;93973.30;1721523;83;21160;-57
2021/03/19 04:00:25;;;;;;;43.15;28.10;;;;;;;1.84;67.39;93973.26;1721462;83;21937;-56
2021/03/19 04:02:52;;;;;;;49.53;29.65;;;;;;;1.89;67.41;93968.72;1721476;83;21127;-56
2021/03/19 04:05:26;;;;;;;70.42;37.78;;;;;;;2.04;67.22;93970.61;1721451;83;21448;-56
2021/03/19 04:07:54;;;;;;;70.40;41.92;;;;;;;2.18;66.78;93974.46;1721438;83;21582;-56
2021/03/19 04:10:23;;;;;;;66.42;36.80;;;;;;;2.25;66.12;93978.41;1721334;82;21151;-55
2021/03/19 04:12:51;;;;;;;60.05;35.00;;;;;;;2.00;65.91;93973.37;1721511;83;21571;-56
2021/03/19 04:15:21;;;;;;;55.73;33.35;;;;;;;1.77;66.41;93974.70;1721480;83;21071;-56
2021/03/19 04:17:48;;;;;;;59.03;34.98;;;;;;;1.65;66.54;93975.86;1721516;83;22089;-56
2021/03/19 04:20:18;;;;;;;59.13;35.83;;;;;;;1.54;66.85;93979.30;1721444;83;21103;-56
2021/03/19 04:22:45;;;;;;;59.25;37.48;;;;;;;1.45;67.40;93980.40;1721388;83;21513;-56
2021/03/19 04:25:15;;;;;;;56.05;35.15;;;;;;;1.51;67.70;93986.14;1721482;83;21490;-56
2021/03/19 04:27:55;;;;;;;54.88;35.20;;;;;;;1.65;67.75;93978.56;1721449;83;21155;-56
2021/03/19 04:30:39;;;;;;;52.73;32.63;;;;;;;1.73;67.07;93976.70;1721452;83;21206;-56
2021/03/19 04:33:16;;;;;;;53.98;32.20;;;;;;;1.70;66.90;93986.84;1721339;83;21095;-56
2021/03/19 04:35:47;;;;;;;53.52;34.23;;;;;;;1.49;66.99;93983.83;1721412;83;21159;-56
2021/03/19 04:38:17;;;;;;;65.85;40.23;;;;;;;1.21;67.52;93983.42;1721509;83;21084;-56
2021/03/19 04:40:46;;;;;;;65.65;40.40;;;;;;;1.06;68.19;93986.13;1721436;83;21075;-56
2021/03/19 04:43:15;;;;;;;71.50;42.90;;;;;;;1.12;68.99;93979.86;1721526;83;22192;-55
2021/03/19 04:45:44;;;;;;;85.50;51.00;;;;;;;1.26;68.76;93988.38;1721208;83;21207;-56
2021/03/19 04:48:12;;;;;;;83.92;49.48;;;;;;;1.38;69.20;93983.22;1695319;83;21167;-56
2021/03/19 04:50:42;;;;;;;83.72;50.85;;;;;;;1.54;68.66;93991.48;1721401;83;21167;-56
2021/03/19 04:53:10;;;;;;;80.87;47.95;;;;;;;1.65;68.54;93985.95;1721499;83;21194;-56
2021/03/19 04:55:38;;;;;;;82.78;47.03;;;;;;;1.69;68.11;93981.23;1721428;83;21209;-56
2021/03/19 04:58:06;;;;;;;68.28;40.33;;;;;;;1.63;67.85;93984.98;1721328;83;21088;-56
2021/03/19 05:00:34;;;;;;;71.67;37.70;;;;;;;1.60;68.04;93977.68;1721373;83;21567;-57
2021/03/19 05:03:02;;;;;;;56.90;37.03;;;;;;;1.64;68.11;93983.03;1721432;83;21143;-56
2021/03/19 05:05:32;;;;;;;66.20;42.00;;;;;;;1.74;67.75;93985.62;1721435;83;21132;-55
2021/03/19 05:08:01;;;;;;;64.05;38.53;;;;;;;1.74;67.88;93985.62;1721413;83;21220;-56
2021/03/19 05:10:32;;;;;;;56.28;35.03;;;;;;;1.83;67.90;93989.92;1721249;82;21128;-57
2021/03/19 05:13:00;;;;;;;45.05;30.08;;;;;;;1.99;67.58;93986.75;1721554;83;21120;-60
2021/03/19 05:15:30;;;;;;;76.05;48.52;;;;;;;2.16;66.92;93988.42;1721568;83;21083;-58
2021/03/19 05:17:58;;;;;;;70.75;43.48;;;;;;;2.18;66.37;93984.70;1721432;83;21075;-57
2021/03/19 05:20:26;;;;;;;37.55;25.27;;;;;;;2.13;66.35;93983.08;1721386;83;21387;-56
2021/03/19 05:22:54;;;;;;;28.45;20.97;;;;;;;2.15;65.98;93985.53;1721322;83;21938;-58
2021/03/19 05:25:30;;;;;;;30.08;21.65;;;;;;;2.20;65.38;93995.16;1721440;83;21179;-58
2021/03/19 05:27:59;;;;;;;34.88;25.68;;;;;;;2.14;65.46;93988.08;1721455;83;21092;-57
2021/03/19 05:30:28;;;;;;;31.37;23.18;;;;;;;2.17;65.64;93993.27;1721425;83;21071;-57
2021/03/19 05:32:55;;;;;;;28.10;21.52;;;;;;;2.21;65.46;93995.33;1721362;83;21217;-56
2021/03/19 05:35:25;;;;;;;40.83;28.05;;;;;;;2.26;65.03;93994.86;1721300;83;21147;-58
2021/03/19 05:37:53;;;;;;;34.65;25.27;;;;;;;2.26;64.95;93997.00;1721386;83;21148;-56
2021/03/19 05:40:28;;;;;;;33.10;21.40;;;;;;;2.26;64.99;94006.49;1694781;83;21180;-56
2021/03/19 05:43:25;;;;;;;44.75;28.25;;;;;;;2.20;64.99;94007.37;1715012;83;21079;-56
2021/03/19 05:46:14;;;;;;;26.10;18.42;;;;;;;2.21;65.17;94006.19;1706299;83;21370;-58
2021/03/19 05:49:02;;;;;;;33.53;21.07;;;;;;;2.26;65.04;94007.84;1758980;81;21154;-56
2021/03/19 05:51:54;;;;;;;39.20;24.07;;;;;;;2.32;65.33;94011.62;1760514;81;21623;-56
2021/03/19 05:54:37;;;;;;;34.92;23.70;;;;;;;2.49;64.99;94013.88;1758737;80;21575;-57
2021/03/19 05:57:11;;;;;;;24.67;18.15;;;;;;;2.66;64.65;94008.13;1726440;83;21099;-58
2021/03/19 05:59:46;;;;;;;27.60;18.87;;;;;;;2.72;63.95;94012.50;1695662;83;21459;-56
2021/03/19 06:02:37;;;;;;;27.05;20.52;;;;;;;2.63;63.98;94016.33;1721031;83;21136;-57
2021/03/19 06:05:23;;;;;;;28.75;18.62;;;;;;;2.58;64.09;94022.25;1726823;83;21087;-56
2021/03/19 06:08:01;;;;;;;41.70;26.55;;;;;;;2.55;64.27;94023.08;1726575;83;21634;-57
2021/03/19 06:10:38;;;;;;;31.05;21.60;;;;;;;2.56;64.25;94023.25;1726502;81;21071;-57
2021/03/19 06:13:23;;;;;;;30.55;22.95;;;;;;;2.65;63.91;94029.68;1726620;82;21492;-59
2021/03/19 06:15:55;;;;;;;31.97;22.70;;;;;;;2.69;63.98;94029.62;1726522;82;21146;-57
2021/03/19 06:18:47;;;;;;;34.67;23.67;;;;;;;2.91;63.57;94033.50;1722765;83;21115;-58
2021/03/19 06:21:26;;;;;;;28.67;21.68;;;;;;;2.98;63.23;94028.70;1726207;83;21075;-58
2021/03/19 06:24:26;;;;;;;32.95;24.50;;;;;;;2.97;62.58;94034.55;1726569;83;21083;-58
2021/03/19 06:26:56;;;;;;;32.42;23.83;;;;;;;3.08;62.42;94041.31;1726485;83;21155;-57
2021/03/19 06:29:28;;;;;;;35.75;25.65;;;;;;;3.10;62.44;94034.11;1695752;83;21610;-58
2021/03/19 06:32:14;;;;;;;48.90;30.92;;;;;;;3.13;62.00;94044.14;1696853;83;21099;-59
2021/03/19 06:35:12;;;;;;;31.20;21.57;;;;;;;3.18;62.23;94040.94;1726527;83;21143;-58
2021/03/19 06:37:44;;;;;;;36.05;24.18;;;;;;;3.32;61.81;94045.53;1698031;83;21074;-57
2021/03/19 06:40:37;;;;;;;34.05;22.55;;;;;;;3.35;61.29;94043.33;1696787;84;21216;-59
2021/03/19 06:43:25;;;;;;;28.30;22.42;;;;;;;3.31;61.29;94041.86;1695753;83;21189;-62
2021/03/19 06:46:19;;;;;;;29.27;22.00;;;;;;;3.31;61.31;94042.64;1698702;82;21192;-64
2021/03/19 06:48:58;;;;;;;26.45;20.17;;;;;;;3.40;60.87;94048.27;1701609;83;21192;-61
2021/03/19 06:51:35;;;;;;;29.18;19.30;;;;;;;3.43;60.37;94043.96;1705479;82;21593;-59
2021/03/19 06:54:13;;;;;;;27.75;20.45;;;;;;;3.44;60.54;94045.49;1697551;83;21384;-59
2021/03/19 06:57:09;;;;;;;30.97;22.42;;;;;;;3.45;60.26;94048.38;1687756;83;21198;-60
2021/03/19 06:59:48;;;;;;;26.85;20.45;;;;;;;3.42;59.78;94047.26;1708756;82;21238;-62
2021/03/19 07:02:57;;;;;;;27.10;20.60;;;;;;;3.45;59.38;94047.78;1698992;83;21198;-62
2021/03/19 07:06:09;;;;;;;23.98;19.45;;;;;;;3.46;59.20;94050.67;1692224;82;21187;-66
2021/03/19 07:08:42;;;;;;;31.17;22.62;;;;;;;3.59;58.83;94049.64;1686052;82;21616;-63
2021/03/19 07:11:49;;;;;;;25.92;19.32;;;;;;;3.54;58.66;94049.36;1689673;83;21206;-60
2021/03/19 07:14:55;;;;;;;25.55;20.23;;;;;;;3.52;58.82;94057.92;1685395;83;22243;-61
2021/03/19 07:17:41;;;;;;;23.85;19.05;;;;;;;3.45;59.23;94050.50;1693752;84;21205;-60
2021/03/19 07:21:10;;;;;;;26.82;21.73;;;;;;;3.51;59.14;94050.95;1697393;82;21173;-59
2021/03/19 07:24:12;;;;;;;28.40;19.75;;;;;;;3.62;59.38;94052.09;1690535;82;21186;-61
2021/03/19 07:26:46;;;;;;;25.37;17.60;;;;;;;3.68;59.16;94055.27;1691343;82;21697;-64
2021/03/19 07:29:55;;;;;;;29.90;20.32;;;;;;;3.74;58.90;94060.98;1688968;82;21163;-65
2021/03/19 07:32:57;;;;;;;21.97;17.02;;;;;;;3.75;58.63;94059.80;1682136;82;21508;-64
2021/03/19 07:35:58;;;;;;;27.82;18.67;;;;;;;3.81;58.24;94064.33;1690319;82;21277;-63
2021/03/19 07:38:51;;;;;;;30.70;20.72;;;;;;;3.77;58.17;94062.28;1691286;83;21375;-64
2021/03/19 07:41:36;;;;;;;30.77;22.40;;;;;;;3.85;58.48;94062.30;1686967;82;21589;-62
2021/03/19 07:44:38;;;;;;;28.52;20.45;;;;;;;4.00;58.19;94070.34;1691120;84;22117;-67
2021/03/19 07:47:28;;;;;;;26.20;19.82;;;;;;;3.97;57.36;94064.37;1686878;84;21222;-65
2021/03/19 07:50:44;;;;;;;27.35;21.50;;;;;;;3.83;57.80;94072.83;1694204;82;21197;-64
2021/03/19 07:53:58;;;;;;;29.12;22.98;;;;;;;3.76;57.80;94066.77;1690192;84;21319;-58
2021/03/19 07:56:50;;;;;;;32.67;23.30;;;;;;;3.81;57.46;94074.42;1687222;82;22041;-63
2021/03/19 07:59:57;;;;;;;37.67;27.00;;;;;;;3.79;56.95;94072.14;1697596;83;21170;-60
2021/03/19 08:03:01;;;;;;;24.23;18.00;;;;;;;3.68;56.63;94072.19;1694203;83;21139;-62
2021/03/19 08:05:50;;;;;;;19.48;16.60;;;;;;;3.52;57.36;94067.44;1693074;82;21531;-65
2021/03/19 08:08:36;;;;;;;22.35;16.48;;;;;;;3.39;57.43;94063.66;1687970;82;21284;-65
2021/03/19 08:11:32;;;;;;;24.35;16.48;;;;;;;3.21;57.97;94064.59;1697569;82;21222;-60
2021/03/19 08:14:47;;;;;;;12.43;11.20;;;;;;;3.08;58.52;94065.02;1682357;83;21190;-60
2021/03/19 08:17:46;;;;;;;13.85;12.40;;;;;;;2.92;57.36;94068.41;1688086;84;21526;-67
2021/03/19 08:20:26;;;;;;;15.43;13.03;;;;;;;2.79;57.75;94072.11;1691165;82;21222;-60
2021/03/19 08:23:32;;;;;;;15.88;13.30;;;;;;;2.83;58.05;94073.59;1691450;82;21402;-66
2021/03/19 08:26:01;;;;;;;18.57;14.45;;;;;;;2.88;58.49;94072.36;1693725;83;21666;-61
2021/03/19 08:28:47;;;;;;;20.68;16.00;;;;;;;2.93;58.82;94066.44;1700371;81;21146;-65
2021/03/19 08:31:57;;;;;;;15.32;12.82;;;;;;;2.99;58.99;94072.92;1691261;83;21310;-62
2021/03/19 08:34:41;;;;;;;13.85;11.10;;;;;;;2.96;57.83;94073.75;1700305;83;21107;-63
2021/03/19 08:37:31;;;;;;;12.55;10.88;;;;;;;3.01;58.26;94078.70;1669606;84;21658;-59
2021/03/19 08:39:59;;;;;;;12.15;10.93;;;;;;;3.12;57.89;94077.94;1681506;82;21488;-65
2021/03/19 08:42:36;;;;;;;12.18;10.98;;;;;;;3.27;57.58;94079.22;1703042;82;22024;-60
2021/03/19 08:45:10;;;;;;;13.00;11.63;;;;;;;3.38;57.14;94078.44;1694783;82;21035;-62
2021/03/19 08:47:44;;;;;;;12.60;11.30;;;;;;;3.47;56.90;94076.70;1724440;81;21154;-61
2021/03/19 08:50:34;;;;;;;10.90;9.80;;;;;;;3.63;56.69;94076.74;1722407;81;21231;-60
2021/03/19 08:53:24;;;;;;;34.80;23.02;;;;;;;3.82;56.55;94075.95;1725211;82;21703;-60
2021/03/19 08:56:10;;;;;;;30.17;18.85;;;;;;;3.88;56.62;94080.49;1718944;82;21127;-64
2021/03/19 08:58:52;;;;;;;21.02;15.25;;;;;;;3.94;56.85;94076.69;1720281;82;21818;-64
2021/03/19 09:01:52;;;;;;;26.30;18.20;;;;;;;3.95;56.89;94078.22;1727196;81;21225;-67
2021/03/19 09:04:42;;;;;;;30.45;21.70;;;;;;;3.99;57.09;94075.61;1729490;81;21389;-60
2021/03/19 09:07:37;;;;;;;18.48;14.85;;;;;;;4.14;56.46;94076.84;1725049;81;21152;-64
2021/03/19 09:10:22;;;;;;;27.67;20.77;;;;;;;4.31;56.10;94072.17;1728878;81;21161;-65
2021/03/19 09:13:08;;;;;;;16.07;12.13;;;;;;;4.46;55.61;94074.14;1717727;81;21184;-60
2021/03/19 09:15:43;;;;;;;17.17;14.05;;;;;;;4.64;55.01;94066.94;1723031;82;21639;-63
2021/03/19 09:18:45;;;;;;;22.93;15.40;;;;;;;4.76;54.77;94073.83;1717835;83;22601;-65
2021/03/19 09:21:33;;;;;;;34.08;19.75;;;;;;;4.80;54.68;94066.33;1722248;83;21285;-61
2021/03/19 09:24:22;;;;;;;16.60;12.82;;;;;;;4.87;54.51;94072.98;1696367;83;21120;-58
2021/03/19 09:26:55;;;;;;;20.62;16.42;;;;;;;4.94;53.94;94072.05;1724597;81;21148;-60
2021/03/19 09:29:34;;;;;;;17.00;12.98;;;;;;;4.99;53.35;94072.88;1722698;81;21146;-59
2021/03/19 09:32:32;;;;;;;16.40;13.38;;;;;;;5.03;53.50;94074.34;1720602;81;21772;-66
2021/03/19 09:35:40;;;;;;;17.92;13.50;;;;;;;4.79;53.19;94077.66;1866769;76;22297;-65
2021/03/19 09:38:28;;;;;;;15.05;12.43;;;;;;;4.62;53.54;94068.71;1839163;77;21671;-62
2021/03/19 09:41:00;;;;;;;19.60;14.93;;;;;;;4.59;53.97;94066.84;1827531;76;22625;-65
2021/03/19 09:43:46;;;;;;;16.00;11.65;;;;;;;4.58;52.96;94063.95;1740630;80;21193;-60
2021/03/19 09:46:26;;;;;;;17.57;14.05;;;;;;;4.58;53.18;94063.95;1748667;80;21947;-64
2021/03/19 09:49:06;;;;;;;16.48;12.98;;;;;;;4.52;53.19;94068.96;1793645;78;21475;-65
2021/03/19 09:51:44;;;;;;;14.03;11.18;;;;;;;4.58;52.86;94067.28;1797355;78;21094;-63
2021/03/19 09:54:26;;;;;;;16.57;11.40;;;;;;;4.56;52.56;94060.89;1797484;78;21386;-61
2021/03/19 09:57:00;;;;;;;14.60;11.93;;;;;;;4.50;52.67;94068.04;1806091;77;21182;-64
2021/03/19 09:59:28;;;;;;;19.57;14.68;;;;;;;4.55;52.33;94062.08;1792629;78;21191;-60
2021/03/19 10:01:57;;;;;;;15.58;11.22;;;;;;;4.76;52.45;94068.98;1791430;78;21174;-61
2021/03/19 10:04:37;;;;;;;11.65;9.28;;;;;;;4.90;51.73;94062.59;1800613;78;21170;-61
2021/03/19 10:07:24;;;;;;;13.90;11.38;;;;;;;5.11;51.18;94061.30;1788953;78;21201;-60
2021/03/19 10:09:55;;;;;;;12.68;9.68;;;;;;;5.25;50.98;94062.44;1756769;80;21945;-61
2021/03/19 10:12:32;;;;;;;16.23;13.13;;;;;;;5.44;50.67;94061.53;1747996;80;21654;-60
2021/03/19 10:15:12;;;;;;;13.55;10.78;;;;;;;5.60;51.14;94071.64;1779918;79;21154;-63
2021/03/19 10:17:51;;;;;;;17.80;12.35;;;;;;;5.59;49.93;94064.66;1756113;80;21131;-60
2021/03/19 10:20:27;;;;;;;20.00;14.20;;;;;;;5.49;50.55;94065.70;1760373;79;21389;-65
2021/03/19 10:22:59;;;;;;;18.27;12.10;;;;;;;5.39;50.84;94069.50;1768114;79;21593;-67
2021/03/19 10:25:32;;;;;;;19.57;12.35;;;;;;;5.48;51.11;94066.90;1755615;80;21181;-58
2021/03/19 10:28:19;;;;;;;20.97;12.70;;;;;;;5.55;50.66;94065.33;1750711;81;21194;-63
2021/03/19 10:34:31;;;;;;;22.73;13.07;;;;;;;5.59;51.52;94069.50;1649798;82;21232;-58
2021/03/19 10:37:09;;;;;;;21.07;11.78;;;;;;;5.78;50.30;94070.55;1701779;83;21209;-56
2021/03/19 10:39:54;;;;;;;31.68;17.02;;;;;;;5.68;50.41;94070.23;1688846;83;21547;-57
2021/03/19 10:42:51;;;;;;;32.93;18.32;;;;;;;5.63;50.16;94068.05;1701328;83;21137;-59
2021/03/19 10:45:48;;;;;;;21.30;14.45;;;;;;;5.72;50.41;94072.27;1667226;85;21180;-56
2021/03/19 10:48:45;;;;;;;27.30;13.13;;;;;;;5.92;50.71;94074.25;1647740;86;21248;-58
2021/03/19 10:51:27;;;;;;;35.92;14.80;;;;;;;6.14;49.49;94071.10;1701318;82;21914;-56
2021/03/19 10:54:20;;;;;;;33.73;15.35;;;;;;;6.29;47.74;94073.55;1701986;83;21143;-55
2021/03/19 10:56:53;;;;;;;37.80;17.62;;;;;;;6.33;48.64;94073.62;1696181;83;22191;-56
2021/03/19 10:59:30;;;;;;;29.65;14.95;;;;;;;6.43;47.96;94070.40;1695333;84;21143;-57
2021/03/19 11:02:15;;;;;;;26.02;12.53;;;;;;;6.45;47.79;94067.99;1696555;82;22683;-55
2021/03/19 11:05:02;;;;;;;29.37;13.75;;;;;;;6.42;46.68;94059.31;1827353;78;22782;-58
2021/03/19 11:07:37;;;;;;;27.65;16.32;;;;;;;6.23;46.70;94059.70;1810010;79;21231;-56
2021/03/19 11:10:39;;;;;;;25.05;14.68;;;;;;;6.16;47.70;94058.52;1805705;77;21980;-61
2021/03/19 11:13:14;;;;;;;33.08;14.68;;;;;;;6.18;48.21;94067.66;1788692;77;21206;-57
2021/03/19 11:15:50;;;;;;;27.10;13.85;;;;;;;6.29;46.82;94053.84;1781879;80;21199;-56
2021/03/19 11:18:38;;;;;;;29.12;14.40;;;;;;;6.45;47.33;94050.23;1803411;79;21208;-57
2021/03/19 11:21:16;;;;;;;26.33;13.22;;;;;;;6.76;47.55;94051.98;1814538;78;21675;-56
2021/03/19 11:23:48;;;;;;;23.10;13.30;;;;;;;7.11;47.18;94057.64;1813087;79;21270;-59
2021/03/19 11:26:30;;;;;;;31.73;15.18;;;;;;;7.23;46.35;94063.10;1786199;79;21186;-60
2021/03/19 11:29:19;;;;;;;29.02;15.72;;;;;;;7.13;45.66;94050.53;1784938;80;21131;-57
2021/03/19 11:32:15;;;;;;;25.37;14.23;;;;;;;7.04;45.19;94051.05;1778001;80;21238;-57
2021/03/19 11:34:50;;;;;;;24.43;17.50;;;;;;;6.82;46.24;94057.64;1754472;81;21167;-59
2021/03/19 11:37:27;;;;;;;23.45;12.40;;;;;;;6.82;46.62;94050.81;1773137;80;21259;-56
2021/03/19 11:40:26;;;;;;;20.82;12.10;;;;;;;6.90;45.50;94052.12;1776031;79;22338;-59
2021/03/19 11:42:59;;;;;;;23.18;14.13;;;;;;;6.75;46.53;94051.05;1751724;81;21758;-58
2021/03/19 11:45:33;;;;;;;29.15;14.38;;;;;;;6.62;47.77;94059.84;1751365;81;21219;-58
2021/03/19 11:48:31;;;;;;;32.90;18.87;;;;;;;6.60;47.25;94055.42;1751813;81;22220;-59
2021/03/19 11:51:14;;;;;;;28.98;15.75;;;;;;;6.56;46.84;94058.88;1751753;81;21348;-56
2021/03/19 11:53:42;;;;;;;45.12;24.43;;;;;;;6.39;47.71;94055.50;1751312;81;21215;-59
2021/03/19 11:56:13;;;;;;;26.40;15.03;;;;;;;6.22;47.33;94051.92;1750818;81;21198;-60
2021/03/19 11:58:42;;;;;;;27.73;15.08;;;;;;;6.04;47.60;94050.32;1751495;81;21721;-59
2021/03/19 12:01:10;;;;;;;24.18;14.45;;;;;;;5.96;48.55;94057.95;1751938;81;21135;-59
2021/03/19 12:03:43;;;;;;;21.17;11.45;;;;;;;5.97;48.84;94054.64;1751314;81;22663;-61
2021/03/19 12:06:13;;;;;;;18.10;12.40;;;;;;;5.98;48.36;94058.28;1756014;80;21142;-59
2021/03/19 12:08:42;;;;;;;22.70;11.57;;;;;;;6.11;48.19;94059.66;1782086;80;21615;-59
2021/03/19 12:11:24;;;;;;;18.10;10.45;;;;;;;6.15;48.17;94065.19;1781088;80;21167;-58
2021/03/19 12:13:52;;;;;;;23.32;13.25;;;;;;;6.13;48.59;94057.28;1782850;79;21135;-60
2021/03/19 12:16:20;;;;;;;21.68;11.80;;;;;;;5.98;48.39;94062.98;1796775;79;21203;-58
2021/03/19 12:18:49;;;;;;;16.97;11.10;;;;;;;5.87;49.01;94055.69;1798325;79;21215;-60
2021/03/19 12:21:18;;;;;;;47.08;26.20;;;;;;;5.67;49.45;94055.06;1804536;79;21630;-58
2021/03/19 12:23:47;;;;;;;25.30;16.57;;;;;;;5.40;49.53;94053.30;1782300;79;21230;-57
2021/03/19 12:26:15;;;;;;;19.15;13.72;;;;;;;5.16;50.06;94061.52;1784445;79;21284;-57
2021/03/19 12:28:44;;;;;;;15.00;12.13;;;;;;;5.01;50.97;94062.31;1763897;80;21284;-62